Terminal Aerodrome Forecast
Issued by NWS Paducah, KY

Home | Current Version | Previous Version | Graphics & Text | Print | Product List | Glossary On
Versions: 1 2 3 4 5 6 7 8 9 10 11 12 13 14 15 16 17 18
689
FTUS43 KPAH 251728
TAFEVV
TAF
KEVV 251728Z 2518/2618 36007KT P6SM SCT030
     FM252000 36005KT P6SM BKN150
     FM260200 03005KT P6SM BKN130=

USA.gov is the U.S. government's official web portal to all federal, state and local government web resources and services.